createdAt,value
2017-06-03T00:01:16.503Z,17.40
2017-06-03T00:03:43.974Z,17.30
2017-06-03T00:06:12.241Z,17.20
2017-06-03T00:08:39.705Z,17.20
2017-06-03T00:11:07.966Z,17.20
2017-06-03T00:13:35.532Z,17.20
2017-06-03T00:16:03.086Z,17.20
2017-06-03T00:18:30.546Z,17.10
2017-06-03T00:20:58.098Z,17.10
2017-06-03T00:23:25.562Z,17.10
2017-06-03T00:25:53.022Z,17.10
2017-06-03T00:28:21.287Z,17.10
2017-06-03T00:30:48.751Z,17.10
2017-06-03T00:33:16.216Z,17.20
2017-06-03T00:35:43.678Z,17.20
2017-06-03T00:38:11.924Z,17.20
2017-06-03T00:40:39.392Z,17.20
2017-06-03T00:43:06.854Z,17.10
2017-06-03T00:45:34.316Z,17.10
2017-06-03T00:48:02.579Z,17.30
2017-06-03T00:50:30.135Z,17.20
2017-06-03T00:52:57.590Z,17.30
2017-06-03T00:55:25.058Z,17.40
2017-06-03T00:57:52.610Z,17.40
2017-06-03T01:00:20.168Z,17.30
2017-06-03T01:02:47.654Z,17.20
2017-06-03T01:05:15.178Z,17.20
2017-06-03T01:07:42.644Z,17.20
2017-06-03T01:10:10.111Z,17.20
2017-06-03T01:12:38.340Z,17.10
2017-06-03T01:15:05.827Z,17.10
2017-06-03T01:17:33.290Z,17.00
2017-06-03T01:20:00.755Z,17.10
2017-06-03T01:22:28.986Z,17.10
2017-06-03T01:24:56.468Z,17.10
2017-06-03T01:27:23.926Z,17.00
2017-06-03T01:29:51.388Z,16.90
2017-06-03T01:32:18.847Z,16.90
2017-06-03T01:34:47.110Z,16.80
2017-06-03T01:37:14.667Z,16.80
2017-06-03T01:39:42.134Z,16.80
2017-06-03T01:42:10.368Z,16.70
2017-06-03T01:44:37.836Z,16.70
2017-06-03T01:47:05.295Z,16.70
2017-06-03T01:49:32.759Z,16.90
2017-06-03T01:52:00.236Z,16.90
2017-06-03T01:54:27.787Z,16.80
2017-06-03T01:56:55.358Z,16.70
2017-06-03T01:59:23.582Z,16.60
2017-06-03T02:01:51.043Z,16.60
2017-06-03T02:04:18.514Z,16.70
2017-06-03T02:06:46.091Z,16.50
2017-06-03T02:09:13.651Z,16.50
2017-06-03T02:11:41.203Z,16.40
2017-06-03T02:14:08.673Z,16.40
2017-06-03T02:16:36.903Z,16.20
2017-06-03T02:19:04.393Z,16.20
2017-06-03T02:21:31.946Z,16.20
2017-06-03T02:23:59.423Z,16.10
2017-06-03T02:26:27.658Z,15.90
2017-06-03T02:28:55.241Z,15.80
2017-06-03T02:31:22.803Z,15.80
2017-06-03T02:33:50.272Z,15.80
2017-06-03T02:36:18.499Z,15.80
2017-06-03T02:38:46.089Z,15.70
2017-06-03T02:41:13.647Z,15.70
2017-06-03T02:43:41.210Z,15.60
2017-06-03T02:46:08.671Z,15.60
2017-06-03T02:48:36.906Z,15.60
2017-06-03T02:51:04.364Z,15.60
2017-06-03T02:53:31.839Z,15.60
2017-06-03T02:55:59.302Z,15.60
2017-06-03T02:58:26.863Z,15.60
2017-06-03T03:00:54.330Z,15.50
2017-06-03T03:03:22.565Z,15.70
2017-06-03T03:05:50.050Z,15.70
2017-06-03T03:08:17.610Z,15.80
2017-06-03T03:10:45.083Z,15.80
2017-06-03T03:13:13.306Z,15.90
2017-06-03T03:15:40.786Z,15.90
2017-06-03T03:18:08.251Z,15.90
2017-06-03T03:20:35.814Z,15.90
2017-06-03T03:23:03.270Z,15.80
2017-06-03T03:25:30.826Z,15.70
2017-06-03T03:27:58.294Z,15.60
2017-06-03T03:30:25.846Z,15.60
2017-06-03T03:32:53.404Z,15.50
2017-06-03T03:35:20.865Z,15.50
2017-06-03T03:37:48.420Z,15.60
2017-06-03T03:40:15.888Z,15.60
2017-06-03T03:42:44.152Z,15.70
2017-06-03T03:45:11.615Z,15.70
2017-06-03T03:47:39.162Z,15.60
2017-06-03T03:50:06.628Z,15.60
2017-06-03T03:52:34.873Z,15.80
2017-06-03T03:55:02.342Z,15.70
2017-06-03T03:57:29.816Z,15.90
2017-06-03T03:59:58.083Z,16.10
2017-06-03T04:02:25.547Z,16.10
2017-06-03T04:04:53.006Z,16.10
2017-06-03T04:07:21.267Z,16.20
2017-06-03T04:09:48.731Z,16.20
2017-06-03T04:12:16.194Z,16.40
2017-06-03T04:14:44.419Z,16.80
2017-06-03T04:17:11.914Z,16.80
2017-06-03T04:19:39.476Z,17.00
2017-06-03T04:22:06.935Z,17.20
2017-06-03T04:24:34.491Z,17.80
2017-06-03T04:27:01.960Z,18.60
2017-06-03T04:29:30.207Z,20.30
2017-06-03T04:31:57.659Z,20.30
2017-06-03T04:34:25.231Z,21.80
2017-06-03T04:36:52.682Z,23.20
2017-06-03T04:39:20.142Z,24.00
2017-06-03T04:41:47.598Z,24.00
2017-06-03T04:44:15.043Z,24.90
2017-06-03T04:46:42.511Z,25.60
2017-06-03T04:49:09.971Z,25.90
2017-06-03T04:51:37.419Z,25.70
2017-06-03T04:54:04.983Z,25.80
2017-06-03T04:56:32.440Z,25.80
2017-06-03T04:58:59.895Z,26.00
2017-06-03T05:01:27.347Z,24.70
2017-06-03T05:03:54.799Z,24.50
2017-06-03T05:06:22.372Z,25.20
2017-06-03T05:08:49.827Z,26.40
2017-06-03T05:11:17.375Z,26.80
2017-06-03T05:13:44.831Z,26.80
2017-06-03T05:16:12.393Z,27.20
2017-06-03T05:18:39.853Z,28.20
2017-06-03T05:21:07.332Z,29.60
2017-06-03T05:23:35.560Z,29.10
2017-06-03T05:26:03.017Z,29.10
2017-06-03T05:28:30.499Z,26.50
2017-06-03T05:30:57.951Z,25.10
2017-06-03T05:33:25.411Z,23.90
2017-06-03T05:35:52.870Z,23.80
2017-06-03T05:38:20.424Z,23.50
2017-06-03T05:40:47.974Z,23.30
2017-06-03T05:43:15.540Z,22.60
2017-06-03T07:32:37.102Z,25.10
2017-06-03T07:35:04.555Z,25.10
2017-06-03T07:37:32.051Z,25.10
2017-06-03T07:39:59.509Z,25.20
2017-06-03T07:42:26.971Z,25.40
2017-06-03T07:44:54.426Z,25.50
2017-06-03T07:47:21.891Z,25.70
2017-06-03T07:49:50.114Z,25.70
2017-06-03T07:52:17.578Z,25.70
2017-06-03T07:54:45.026Z,26.20
2017-06-03T07:57:12.479Z,26.00
2017-06-03T07:59:39.930Z,26.00
2017-06-03T08:02:07.386Z,26.20
2017-06-03T08:04:34.847Z,26.20
2017-06-03T08:07:02.303Z,26.50
2017-06-03T08:09:29.795Z,26.60
2017-06-03T08:11:57.251Z,27.00
2017-06-03T08:14:24.718Z,26.90
2017-06-03T08:16:52.163Z,27.10
2017-06-03T08:19:19.647Z,27.30
2017-06-03T08:21:47.863Z,27.20
2017-06-03T08:24:15.315Z,27.20
2017-06-03T08:26:42.766Z,27.10
2017-06-03T08:29:10.221Z,27.00
2017-06-03T08:31:37.683Z,26.80
2017-06-03T08:34:05.140Z,26.30
2017-06-03T08:36:32.632Z,25.80
2017-06-03T08:39:00.090Z,26.10
2017-06-03T08:41:27.547Z,26.20
2017-06-03T08:43:54.998Z,26.10
2017-06-03T08:46:22.469Z,26.20
2017-06-03T08:48:50.018Z,26.20
2017-06-03T08:51:17.507Z,26.40
2017-06-03T08:53:44.954Z,26.50
2017-06-03T08:56:13.178Z,26.60
2017-06-03T08:58:40.640Z,26.60
2017-06-03T09:01:08.097Z,26.40
2017-06-03T09:03:35.577Z,26.10
2017-06-03T09:06:03.026Z,26.40
2017-06-03T09:08:30.487Z,26.80
2017-06-03T09:10:57.943Z,26.80
2017-06-03T09:13:25.398Z,27.00
2017-06-03T09:15:52.951Z,26.80
2017-06-03T09:18:20.415Z,26.50
2017-06-03T09:20:47.867Z,26.40
2017-06-03T09:23:15.334Z,26.10
2017-06-03T09:25:42.881Z,26.20
2017-06-03T09:28:10.346Z,26.20
2017-06-03T09:30:37.799Z,26.30
2017-06-03T09:33:05.354Z,26.40
2017-06-03T09:35:32.806Z,26.30
2017-06-03T09:38:00.267Z,26.00
2017-06-03T09:40:27.718Z,26.00
2017-06-03T09:42:55.174Z,26.20
2017-06-03T09:45:22.632Z,26.60
2017-06-03T09:47:50.086Z,26.60
2017-06-03T09:50:17.547Z,25.70
2017-06-03T09:52:45.082Z,25.40
2017-06-03T09:55:12.543Z,24.90
2017-06-03T09:57:39.998Z,24.80
2017-06-03T10:00:07.571Z,24.50
2017-06-03T10:02:35.035Z,24.40
2017-06-03T10:05:02.588Z,24.60
2017-06-03T10:07:30.047Z,24.70
2017-06-03T10:09:57.490Z,24.70
2017-06-03T10:12:24.946Z,24.80
2017-06-03T10:14:52.395Z,25.00
2017-06-03T10:17:19.851Z,24.60
2017-06-03T10:19:47.306Z,24.60
2017-06-03T10:22:14.764Z,24.50
2017-06-03T10:24:42.218Z,24.40
2017-06-03T10:27:09.738Z,24.40
2017-06-03T10:29:37.190Z,24.70
2017-06-03T10:32:04.668Z,25.20
2017-06-03T10:37:06.895Z,24.80
2017-06-03T10:39:34.348Z,24.80
2017-06-03T10:42:01.823Z,24.90
2017-06-03T10:44:30.079Z,25.30
2017-06-03T10:46:57.537Z,25.30
2017-06-03T10:49:24.996Z,25.40
2017-06-03T10:51:52.447Z,25.40
2017-06-03T10:54:19.897Z,25.30
2017-06-03T10:56:47.347Z,25.20
2017-06-03T10:59:14.806Z,25.20
2017-06-03T11:01:42.373Z,25.00
2017-06-03T11:04:09.835Z,25.20
2017-06-03T11:06:37.299Z,25.30
2017-06-03T11:09:05.524Z,25.40
2017-06-03T11:11:32.982Z,25.30
2017-06-03T11:14:00.447Z,25.40
2017-06-03T11:16:27.927Z,25.80
2017-06-03T11:18:55.399Z,25.80
2017-06-03T11:21:23.665Z,25.70
2017-06-03T11:23:51.119Z,25.70
2017-06-03T11:26:18.572Z,26.10
2017-06-03T11:28:46.026Z,25.80
2017-06-03T11:31:13.496Z,25.80
2017-06-03T11:33:41.049Z,25.80
2017-06-03T11:36:08.508Z,26.10
2017-06-03T11:38:35.959Z,26.30
2017-06-03T11:41:03.423Z,26.60
2017-06-03T11:43:31.691Z,27.10
2017-06-03T11:45:59.151Z,27.10
2017-06-03T11:48:26.612Z,27.40
2017-06-03T11:50:54.155Z,27.80
2017-06-03T11:53:21.617Z,28.20
2017-06-03T11:55:49.079Z,28.50
2017-06-03T11:58:16.626Z,28.80
2017-06-03T12:00:44.095Z,28.90
2017-06-03T12:03:11.552Z,28.70
2017-06-03T12:05:39.099Z,28.30
2017-06-03T12:08:06.552Z,28.40
2017-06-03T12:10:34.015Z,28.50
2017-06-03T12:13:01.569Z,28.50
2017-06-03T12:15:29.022Z,28.00
2017-06-03T12:17:56.482Z,28.20
2017-06-03T12:20:23.943Z,28.30
2017-06-03T12:22:51.398Z,28.20
2017-06-03T12:25:18.851Z,28.30
2017-06-03T12:27:46.312Z,28.40
2017-06-03T12:30:13.765Z,28.00
2017-06-03T12:32:41.226Z,27.70
2017-06-03T12:35:08.681Z,27.70
2017-06-03T12:37:36.147Z,27.90
2017-06-03T12:40:04.407Z,28.50
2017-06-03T12:42:31.875Z,28.50
2017-06-03T12:45:00.098Z,28.60
2017-06-03T12:47:27.561Z,28.60
2017-06-03T12:49:55.050Z,28.40
2017-06-03T12:52:22.516Z,28.30
2017-06-03T12:54:50.063Z,28.00
2017-06-03T12:57:17.532Z,27.90
2017-06-03T12:59:44.985Z,27.50
2017-06-03T13:02:12.537Z,27.50
2017-06-03T13:04:39.995Z,27.70
2017-06-03T13:07:07.451Z,27.50
2017-06-03T13:09:35.007Z,27.80
2017-06-03T13:12:02.455Z,27.80
2017-06-03T13:14:29.919Z,28.00
2017-06-03T13:16:57.479Z,27.70
2017-06-03T13:19:25.040Z,27.90
2017-06-03T13:21:52.495Z,28.10
2017-06-03T13:24:19.958Z,28.30
2017-06-03T13:26:47.498Z,28.40
2017-06-03T13:29:15.062Z,28.40
2017-06-03T13:31:42.519Z,28.20
2017-06-03T13:34:10.002Z,28.30
2017-06-03T13:36:38.251Z,28.50
2017-06-03T13:39:05.710Z,28.50
2017-06-03T13:41:33.153Z,28.50
2017-06-03T13:44:00.719Z,28.60
2017-06-03T13:46:28.280Z,28.60
2017-06-03T13:48:55.739Z,28.50
2017-06-03T13:51:23.202Z,28.50
2017-06-03T13:53:50.659Z,28.50
2017-06-03T13:56:18.211Z,28.50
2017-06-03T13:58:45.664Z,28.80
2017-06-03T14:01:13.215Z,29.30
2017-06-03T14:03:40.673Z,29.50
2017-06-03T14:06:08.126Z,29.40
2017-06-03T14:08:35.587Z,29.40
2017-06-03T14:11:03.070Z,29.40
2017-06-03T14:13:31.295Z,29.10
2017-06-03T14:15:58.779Z,29.10
2017-06-03T14:18:26.238Z,28.90
2017-06-03T14:20:53.792Z,28.50
2017-06-03T14:23:21.354Z,28.20
2017-06-03T14:25:48.809Z,28.60
2017-06-03T14:28:16.270Z,29.00
2017-06-03T14:30:43.731Z,28.90
2017-06-03T14:33:11.191Z,28.90
2017-06-03T14:35:39.414Z,28.40
2017-06-03T14:38:06.874Z,28.30
2017-06-03T14:40:34.331Z,28.10
2017-06-03T14:43:01.800Z,28.00
2017-06-03T14:45:29.278Z,28.10
2017-06-03T14:47:56.774Z,28.20
2017-06-03T14:50:24.291Z,28.40
2017-06-03T14:52:51.747Z,28.30
2017-06-03T14:55:19.203Z,28.50
2017-06-03T14:57:46.758Z,28.70
2017-06-03T15:00:14.226Z,28.60
2017-06-03T15:02:41.680Z,28.30
2017-06-03T15:05:09.142Z,28.50
2017-06-03T15:07:37.407Z,28.60
2017-06-03T15:10:04.871Z,28.50
2017-06-03T15:12:32.419Z,28.20
2017-06-03T15:14:59.887Z,27.80
2017-06-03T15:17:28.115Z,27.90
2017-06-03T15:19:55.571Z,27.80
2017-06-03T15:22:23.026Z,28.00
2017-06-03T15:24:50.487Z,27.70
2017-06-03T15:27:17.942Z,27.70
2017-06-03T15:29:45.422Z,27.30
2017-06-03T15:32:12.883Z,27.30
2017-06-03T15:34:40.447Z,27.40
2017-06-03T15:37:07.903Z,27.30
2017-06-03T15:39:35.367Z,27.50
2017-06-03T15:42:02.827Z,27.50
2017-06-03T15:44:31.094Z,27.60
2017-06-03T15:46:58.642Z,27.50
2017-06-03T15:49:26.086Z,27.40
2017-06-03T15:51:53.553Z,27.30
2017-06-03T15:54:21.002Z,27.10
2017-06-03T15:56:48.467Z,27.00
2017-06-03T15:59:16.027Z,26.80
2017-06-03T16:01:43.587Z,26.80
2017-06-03T16:04:11.046Z,26.70
2017-06-03T16:06:38.609Z,26.60
2017-06-03T16:09:06.051Z,26.50
2017-06-03T16:11:33.611Z,26.20
2017-06-03T16:14:01.066Z,26.00
2017-06-03T16:16:28.516Z,25.80
2017-06-03T16:18:55.974Z,25.70
2017-06-03T16:21:23.434Z,25.50
2017-06-03T16:23:50.903Z,25.20
2017-06-03T16:26:18.459Z,24.90
2017-06-03T16:28:45.929Z,24.50
2017-06-03T16:31:13.379Z,24.00
2017-06-03T16:33:40.936Z,23.90
2017-06-03T16:36:08.483Z,23.50
2017-06-03T16:38:36.045Z,23.50
2017-06-03T16:41:03.499Z,23.40
2017-06-03T16:43:30.960Z,23.20
2017-06-03T16:45:58.414Z,23.00
2017-06-03T16:48:25.871Z,23.00
2017-06-03T16:50:53.339Z,22.90
2017-06-03T16:53:21.600Z,22.90
2017-06-03T16:55:49.054Z,22.90
2017-06-03T16:58:16.511Z,23.00
2017-06-03T17:00:43.975Z,23.10
2017-06-03T17:03:11.534Z,23.00
2017-06-03T17:05:38.994Z,22.80
2017-06-03T17:08:06.439Z,22.80
2017-06-03T17:10:33.922Z,22.80
2017-06-03T17:13:02.143Z,22.70
2017-06-03T17:15:29.632Z,22.70
2017-06-03T17:17:57.091Z,22.90
2017-06-03T17:20:24.554Z,22.90
2017-06-03T17:22:52.015Z,23.00
2017-06-03T17:25:20.243Z,23.00
2017-06-03T17:27:47.722Z,23.00
2017-06-03T17:30:15.187Z,23.10
2017-06-03T17:32:42.659Z,23.10
2017-06-03T17:35:10.890Z,23.00
2017-06-03T17:37:38.359Z,23.00
2017-06-03T17:40:05.814Z,22.90
2017-06-03T17:42:33.278Z,22.60
2017-06-03T17:45:00.734Z,22.50
2017-06-03T17:47:28.202Z,22.50
2017-06-03T17:49:55.751Z,22.40
2017-06-03T17:52:23.211Z,22.30
2017-06-03T17:54:50.769Z,22.10
2017-06-03T17:57:18.226Z,22.00
2017-06-03T17:59:45.782Z,21.90
2017-06-03T18:02:13.241Z,21.80
2017-06-03T18:04:40.717Z,21.60
2017-06-03T18:07:08.930Z,21.30
2017-06-03T18:09:36.427Z,21.30
2017-06-03T18:12:03.883Z,21.10
2017-06-03T18:14:31.346Z,21.10
2017-06-03T18:16:58.895Z,21.10
2017-06-03T18:19:26.363Z,20.90
2017-06-03T18:21:53.811Z,20.90
2017-06-03T18:24:21.275Z,20.90
2017-06-03T18:26:48.718Z,20.80
2017-06-03T18:29:16.186Z,20.80
2017-06-03T18:31:43.739Z,20.80
2017-06-03T18:34:11.203Z,20.70
2017-06-03T18:36:38.649Z,20.60
2017-06-03T18:39:06.122Z,20.60
2017-06-03T18:41:33.571Z,20.60
2017-06-03T18:44:01.835Z,20.50
2017-06-03T18:46:29.286Z,20.50
2017-06-03T18:48:56.735Z,20.40
2017-06-03T18:51:24.307Z,20.30
2017-06-03T18:53:51.765Z,20.30
2017-06-03T18:56:19.227Z,20.30
2017-06-03T18:58:46.688Z,20.20
2017-06-03T19:01:14.144Z,20.10
2017-06-03T19:03:41.684Z,20.10
2017-06-03T19:06:09.147Z,20.10
2017-06-03T19:08:36.602Z,20.10
2017-06-03T19:11:04.070Z,20.20
2017-06-03T19:13:32.298Z,20.10
2017-06-03T19:15:59.756Z,20.10
2017-06-03T19:18:27.214Z,20.10
2017-06-03T19:20:54.669Z,20.00
2017-06-03T19:23:22.118Z,19.90
2017-06-03T19:25:49.584Z,19.80
2017-06-03T19:28:17.030Z,19.70
2017-06-03T19:30:44.487Z,19.70
2017-06-03T19:33:11.971Z,19.50
2017-06-03T19:35:40.229Z,19.40
2017-06-03T19:38:07.699Z,19.40
2017-06-03T19:40:35.151Z,19.30
2017-06-03T19:43:02.732Z,19.30
2017-06-03T19:45:30.183Z,19.30
2017-06-03T19:47:57.659Z,19.30
2017-06-03T19:50:25.917Z,19.20
2017-06-03T19:52:53.374Z,19.20
2017-06-03T19:55:20.826Z,19.20
2017-06-03T19:57:48.285Z,19.20
2017-06-03T20:00:15.743Z,19.20
2017-06-03T20:02:43.199Z,19.20
2017-06-03T20:05:10.664Z,19.30
2017-06-03T20:07:38.118Z,19.30
2017-06-03T20:10:05.577Z,19.20
2017-06-03T20:12:33.827Z,19.20
2017-06-03T20:15:01.911Z,19.10
2017-06-03T20:17:29.370Z,19.00
2017-06-03T20:19:56.931Z,18.90
2017-06-03T20:22:24.394Z,18.80
2017-06-03T20:24:51.847Z,18.70
2017-06-03T20:27:19.392Z,18.70
2017-06-03T20:29:46.843Z,18.80
2017-06-03T20:32:14.300Z,18.70
2017-06-03T20:34:41.870Z,18.60
2017-06-03T20:37:09.325Z,18.60
2017-06-03T20:39:36.790Z,18.50
2017-06-03T20:42:04.259Z,18.50
2017-06-03T20:44:32.483Z,18.40
2017-06-03T20:46:59.952Z,18.40
2017-06-03T20:49:27.406Z,18.40
2017-06-03T20:51:55.703Z,18.40
2017-06-03T20:54:23.163Z,18.50
2017-06-03T20:56:50.720Z,18.50
2017-06-03T20:59:18.162Z,18.40
2017-06-03T21:01:45.622Z,18.50
2017-06-03T21:04:13.083Z,18.40
2017-06-03T21:06:40.538Z,18.30
2017-06-03T21:09:08.015Z,18.20
2017-06-03T21:11:36.234Z,18.20
2017-06-03T21:14:03.712Z,18.20
2017-06-03T21:16:31.182Z,18.20
2017-06-03T21:18:58.671Z,18.30
2017-06-03T21:21:26.883Z,18.40
2017-06-03T21:23:54.346Z,18.40
2017-06-03T21:26:21.809Z,18.40
2017-06-03T21:28:49.288Z,18.40
2017-06-03T21:31:16.747Z,18.40
2017-06-03T21:33:44.300Z,18.30
2017-06-03T21:36:11.850Z,18.20
2017-06-03T21:38:39.302Z,18.20
2017-06-03T21:41:06.773Z,18.20
2017-06-03T21:43:34.230Z,18.40
2017-06-03T21:46:01.780Z,18.50
2017-06-03T21:48:29.334Z,18.60
2017-06-03T21:50:56.820Z,18.70
2017-06-03T21:53:25.080Z,18.70
2017-06-03T21:55:52.543Z,18.70
2017-06-03T21:58:20.804Z,18.70
2017-06-03T22:02:36.800Z,18.70
2017-06-03T22:05:04.255Z,18.70
2017-06-03T22:07:31.720Z,18.60
2017-06-03T22:09:59.182Z,18.60
2017-06-03T22:12:26.736Z,18.60
2017-06-03T22:14:54.199Z,18.70
2017-06-03T22:17:21.660Z,18.70
2017-06-03T22:19:49.887Z,18.60
2017-06-03T22:22:17.348Z,18.60
2017-06-03T22:24:44.826Z,18.60
2017-06-03T22:27:12.297Z,18.60
2017-06-03T22:29:39.852Z,18.50
2017-06-03T22:32:07.315Z,18.50
2017-06-03T22:34:34.776Z,18.60
2017-06-03T22:37:03.034Z,18.60
2017-06-03T22:39:30.494Z,18.50
2017-06-03T22:41:57.956Z,18.60
2017-06-03T22:44:25.507Z,18.50
2017-06-03T22:46:52.963Z,18.40
2017-06-03T22:49:20.456Z,18.40
2017-06-03T22:51:47.918Z,18.40
2017-06-03T22:54:15.370Z,18.40
2017-06-03T22:56:42.831Z,18.30
2017-06-03T22:59:10.293Z,18.20
2017-06-03T23:01:37.753Z,18.20
2017-06-03T23:04:05.215Z,18.20
2017-06-03T23:06:32.716Z,18.20
2017-06-03T23:09:00.174Z,18.20
2017-06-03T23:11:27.640Z,18.30
2017-06-03T23:13:55.187Z,18.50
2017-06-03T23:16:22.640Z,18.40
2017-06-03T23:18:50.104Z,18.40
2017-06-03T23:21:17.571Z,18.60
2017-06-03T23:23:45.792Z,18.50
2017-06-03T23:26:13.258Z,18.50
2017-06-03T23:28:40.744Z,18.50
2017-06-03T23:31:08.307Z,18.50
2017-06-03T23:33:35.767Z,18.30
2017-06-03T23:36:03.227Z,18.20
2017-06-03T23:38:31.451Z,18.20
2017-06-03T23:40:58.905Z,18.20
2017-06-03T23:43:26.366Z,18.20
2017-06-03T23:45:53.863Z,18.20
2017-06-03T23:48:21.418Z,18.10
2017-06-03T23:50:48.974Z,18.00
2017-06-03T23:53:16.435Z,18.10
2017-06-03T23:55:43.959Z,18.00
2017-06-03T23:58:11.442Z,17.90
